Time;durP1;ratioP1;P1;durP2;ratioP2;P2;SDS_P1;SDS_P2;PMS_P1;PMS_P2;Temp;Humidity;BMP_temperature;BMP_pressure;BME280_temperature;BME280_humidity;BME280_pressure;Samples;Min_cycle;Max_cycle;Signal;HPM_P1;HPM_P2
2022/04/22 00:00:44;;;;;;;9.35;8.45;;;;;;;2.96;100.00;91776.72;2099013;28;20063;-80
2022/04/22 00:01:45;;;;;;;8.32;7.40;;;;;;;2.85;100.00;91767.47;2105738;28;20024;-81
2022/04/22 00:02:46;;;;;;;8.13;7.32;;;;;;;2.94;100.00;91775.63;2103898;28;20027;-81
2022/04/22 00:03:47;;;;;;;8.70;7.85;;;;;;;2.99;100.00;91770.66;2102389;28;20373;-79
2022/04/22 00:04:48;;;;;;;10.15;8.15;;;;;;;3.02;100.00;91769.09;2098167;28;20028;-78
2022/04/22 00:05:49;;;;;;;10.25;7.90;;;;;;;3.00;100.00;91766.84;2094057;28;20013;-79
2022/04/22 00:06:51;;;;;;;10.27;8.45;;;;;;;3.03;100.00;91770.59;2106587;28;20048;-80
2022/04/22 00:07:53;;;;;;;8.35;7.50;;;;;;;3.06;100.00;91771.69;2109000;28;20022;-78
2022/04/22 00:08:54;;;;;;;11.27;8.32;;;;;;;3.14;100.00;91770.41;2104454;28;20020;-79
2022/04/22 00:09:55;;;;;;;8.70;7.82;;;;;;;3.13;100.00;91769.69;2106007;28;20031;-78
2022/04/22 00:12:16;;;;;;;7.97;7.18;;;;;;;2.99;100.00;91761.97;2123740;27;20084;-80
2022/04/22 00:13:17;;;;;;;10.18;7.80;;;;;;;2.98;100.00;91771.03;2114389;28;20044;-78
2022/04/22 00:14:18;;;;;;;10.50;7.45;;;;;;;3.08;100.00;91761.47;2099014;28;20082;-78
2022/04/22 00:15:20;;;;;;;8.98;8.07;;;;;;;3.01;100.00;91763.06;2104302;28;20020;-80
2022/04/22 00:16:21;;;;;;;8.73;7.93;;;;;;;2.92;100.00;91765.47;2106588;28;20095;-79
2022/04/22 00:17:22;;;;;;;8.70;7.90;;;;;;;2.91;100.00;91760.59;2106666;28;20055;-78
2022/04/22 00:18:24;;;;;;;8.60;7.60;;;;;;;2.82;100.00;91760.34;2106495;28;20015;-79
2022/04/22 00:19:25;;;;;;;9.70;7.75;;;;;;;2.90;100.00;91762.50;2096218;28;20059;-80
2022/04/22 00:20:27;;;;;;;8.90;8.00;;;;;;;2.84;100.00;91756.16;2112730;28;20011;-80
2022/04/22 00:21:36;;;;;;;9.20;8.30;;;;;;;2.76;100.00;91755.50;2122863;27;20022;-80
2022/04/22 00:22:45;;;;;;;7.88;7.10;;;;;;;2.80;100.00;91749.44;2121231;27;20023;-80
2022/04/22 00:23:52;;;;;;;9.77;8.13;;;;;;;3.01;100.00;91751.75;2106612;28;20043;-80
2022/04/22 00:24:53;;;;;;;8.80;7.93;;;;;;;3.03;100.00;91755.50;2107943;27;20043;-79
2022/04/22 00:25:55;;;;;;;8.63;7.70;;;;;;;2.99;100.00;91749.53;2103467;28;20594;-78
2022/04/22 00:26:56;;;;;;;8.90;8.00;;;;;;;2.81;100.00;91748.28;2106288;28;20071;-78
2022/04/22 00:27:58;;;;;;;9.02;8.23;;;;;;;2.78;100.00;91752.50;2098060;28;20028;-78
2022/04/22 00:28:59;;;;;;;8.63;7.72;;;;;;;2.81;100.00;91741.16;2106755;27;20047;-78
2022/04/22 00:30:00;;;;;;;9.02;7.63;;;;;;;2.79;100.00;91748.69;2106146;28;20061;-79
2022/04/22 00:31:01;;;;;;;10.02;8.20;;;;;;;2.80;100.00;91746.81;2097034;28;20028;-80
2022/04/22 00:32:02;;;;;;;8.90;7.53;;;;;;;2.69;100.00;91749.63;2106696;28;20028;-80
2022/04/22 00:33:04;;;;;;;8.55;7.75;;;;;;;2.80;100.00;91744.91;2106293;28;20047;-80
2022/04/22 00:34:05;;;;;;;8.85;8.05;;;;;;;2.88;100.00;91746.28;2097988;28;20067;-81
2022/04/22 00:35:06;;;;;;;9.57;8.20;;;;;;;2.85;100.00;91735.78;2106020;28;20024;-80
2022/04/22 00:36:07;;;;;;;10.40;7.93;;;;;;;2.81;100.00;91746.41;2122326;27;20019;-78
2022/04/22 00:37:09;;;;;;;10.07;8.50;;;;;;;2.74;100.00;91741.25;2114616;28;20458;-79
2022/04/22 00:38:10;;;;;;;8.57;7.63;;;;;;;2.62;100.00;91736.50;2105609;28;20542;-79
2022/04/22 00:39:11;;;;;;;8.13;7.13;;;;;;;2.65;100.00;91741.00;2114744;28;20027;-80
2022/04/22 00:40:12;;;;;;;12.32;8.13;;;;;;;2.74;100.00;91746.53;2104982;28;20028;-81
2022/04/22 00:41:13;;;;;;;9.02;7.97;;;;;;;2.65;100.00;91736.47;2106420;28;20035;-79
2022/04/22 00:42:14;;;;;;;9.25;8.32;;;;;;;2.70;100.00;91736.00;2106209;28;20405;-80
2022/04/22 00:43:21;;;;;;;9.70;8.07;;;;;;;2.74;100.00;91735.97;2108104;28;20522;-79
2022/04/22 00:44:21;;;;;;;9.15;8.00;;;;;;;2.72;100.00;91732.97;2104999;28;20104;-80
2022/04/22 00:45:22;;;;;;;9.80;7.90;;;;;;;2.72;100.00;91736.38;2104217;28;20023;-81
2022/04/22 00:46:24;;;;;;;8.98;8.13;;;;;;;2.63;100.00;91735.38;2097869;28;20020;-79
2022/04/22 00:47:25;;;;;;;10.57;8.68;;;;;;;2.63;100.00;91732.72;2097955;28;20027;-79
2022/04/22 00:48:27;;;;;;;9.65;8.68;;;;;;;2.58;100.00;91733.19;2103886;28;20020;-78
2022/04/22 00:49:28;;;;;;;9.00;8.18;;;;;;;2.54;100.00;91725.31;2112785;28;20019;-78
2022/04/22 00:50:29;;;;;;;9.23;8.32;;;;;;;2.62;100.00;91725.97;2105793;28;20040;-80
2022/04/22 00:51:30;;;;;;;9.20;8.40;;;;;;;2.69;100.00;91720.59;2111514;28;20460;-80
2022/04/22 00:52:31;;;;;;;9.75;8.75;;;;;;;2.61;100.00;91714.66;2106354;28;20457;-80
2022/04/22 00:53:39;;;;;;;9.00;8.10;;;;;;;2.61;100.00;91721.84;2097791;28;20067;-79
2022/04/22 00:54:41;;;;;;;9.15;7.72;;;;;;;2.57;100.00;91713.97;2106224;27;20019;-79
2022/04/22 00:55:44;;;;;;;8.68;7.88;;;;;;;2.61;100.00;91719.19;2104800;28;20358;-78
2022/04/22 00:56:45;;;;;;;8.93;8.02;;;;;;;2.59;100.00;91724.13;2106317;27;20028;-79
2022/04/22 00:57:47;;;;;;;8.93;8.02;;;;;;;2.58;100.00;91715.47;2106251;28;20066;-80
2022/04/22 00:58:49;;;;;;;10.68;8.32;;;;;;;2.51;100.00;91712.94;2097717;28;20021;-80
2022/04/22 00:59:51;;;;;;;9.35;8.45;;;;;;;2.49;100.00;91710.69;2095842;28;20571;-80
2022/04/22 01:00:52;;;;;;;9.43;8.52;;;;;;;2.50;100.00;91714.06;2095686;28;20119;-79
2022/04/22 01:01:53;;;;;;;9.45;8.18;;;;;;;2.51;100.00;91711.06;2092559;28;20024;-78
2022/04/22 01:02:54;;;;;;;9.48;8.23;;;;;;;2.54;100.00;91709.50;2114727;28;20361;-80
2022/04/22 01:10:37;;;;;;;8.73;7.82;;;;;;;2.43;100.00;91699.09;2121566;27;20467;-79
2022/04/22 01:11:39;;;;;;;8.90;8.00;;;;;;;2.49;100.00;91692.22;2106046;28;20046;-78
2022/04/22 01:12:40;;;;;;;10.27;7.80;;;;;;;2.48;100.00;91687.38;2094968;28;20017;-79
2022/04/22 01:13:41;;;;;;;8.48;7.68;;;;;;;2.52;100.00;91690.69;2112385;28;20808;-79
2022/04/22 01:14:42;;;;;;;9.38;8.00;;;;;;;2.57;100.00;91689.50;2105617;28;20078;-79
2022/04/22 01:15:43;;;;;;;9.43;8.38;;;;;;;2.51;100.00;91689.94;2099925;28;20019;-80
2022/04/22 01:16:44;;;;;;;9.00;8.10;;;;;;;2.50;100.00;91685.81;2107854;28;20023;-79
2022/04/22 01:17:46;;;;;;;9.07;8.18;;;;;;;2.50;100.00;91688.47;2113516;28;20032;-80
2022/04/22 01:18:47;;;;;;;10.20;8.70;;;;;;;2.45;100.00;91688.91;2103867;28;20020;-80
2022/04/22 01:19:48;;;;;;;9.18;8.23;;;;;;;2.49;100.00;91689.59;2103875;28;20032;-81
2022/04/22 01:20:49;;;;;;;9.32;7.72;;;;;;;2.58;100.00;91689.09;2122976;27;20399;-81
2022/04/22 01:21:50;;;;;;;10.90;8.60;;;;;;;2.56;100.00;91688.00;2114407;28;20015;-79
2022/04/22 01:22:51;;;;;;;9.15;8.25;;;;;;;2.61;100.00;91687.56;2097654;28;20742;-78
2022/04/22 01:23:52;;;;;;;9.23;8.25;;;;;;;2.72;100.00;91680.97;2097263;28;20020;-79
2022/04/22 01:25:00;;;;;;;9.07;8.18;;;;;;;2.70;100.00;91682.50;2106051;28;20032;-79
2022/04/22 01:26:01;;;;;;;9.32;8.35;;;;;;;2.69;100.00;91673.13;2113838;27;20026;-80
2022/04/22 01:27:03;;;;;;;8.82;7.93;;;;;;;2.68;100.00;91680.28;2121958;27;20341;-79
2022/04/22 01:28:04;;;;;;;11.82;7.97;;;;;;;2.63;100.00;91680.72;2120324;27;20027;-78
2022/04/22 01:29:06;;;;;;;9.65;8.65;;;;;;;2.62;100.00;91676.59;2114470;28;20031;-79
2022/04/22 01:30:09;;;;;;;8.77;7.90;;;;;;;2.57;100.00;91674.41;2109738;28;20108;-81
2022/04/22 01:31:10;;;;;;;8.85;8.05;;;;;;;2.62;100.00;91678.50;2098082;28;20556;-81
2022/04/22 01:32:11;;;;;;;9.20;8.35;;;;;;;2.61;100.00;91677.75;2105878;28;20036;-79
2022/04/22 01:33:12;;;;;;;10.00;8.02;;;;;;;2.56;100.00;91680.84;2097339;28;20367;-81
2022/04/22 01:34:14;;;;;;;8.60;7.70;;;;;;;2.54;100.00;91675.19;2096182;28;20105;-81
2022/04/22 01:35:15;;;;;;;9.52;8.23;;;;;;;2.49;100.00;91673.03;2097692;28;20033;-79
2022/04/22 01:36:16;;;;;;;9.20;7.90;;;;;;;2.59;100.00;91666.09;2097348;28;20013;-79
2022/04/22 01:37:17;;;;;;;10.98;8.00;;;;;;;2.58;100.00;91673.25;2114172;28;20027;-79
2022/04/22 01:38:18;;;;;;;9.13;8.00;;;;;;;2.56;100.00;91674.81;2105107;28;20366;-80
2022/04/22 01:39:19;;;;;;;8.63;7.72;;;;;;;2.46;100.00;91671.94;2097676;28;20032;-81
2022/04/22 01:40:20;;;;;;;8.90;8.10;;;;;;;2.56;100.00;91678.19;2103697;28;20526;-80
2022/04/22 01:41:21;;;;;;;11.52;7.80;;;;;;;2.55;100.00;91670.66;2099502;28;20354;-80
2022/04/22 01:42:22;;;;;;;9.10;8.20;;;;;;;2.57;100.00;91676.31;2111945;28;20099;-78
2022/04/22 01:43:23;;;;;;;12.02;7.70;;;;;;;2.53;100.00;91671.81;2116375;27;20020;-78
2022/04/22 01:44:25;;;;;;;7.95;7.25;;;;;;;2.52;100.00;91672.22;2103691;28;20027;-78
2022/04/22 01:45:26;;;;;;;9.13;8.20;;;;;;;2.47;100.00;91667.41;2106124;28;20027;-78
2022/04/22 01:46:27;;;;;;;8.80;7.90;;;;;;;2.53;100.00;91665.81;2122753;27;20102;-78
2022/04/22 01:47:29;;;;;;;8.63;7.72;;;;;;;2.49;100.00;91668.50;2104683;28;20016;-79
2022/04/22 01:48:30;;;;;;;8.80;8.00;;;;;;;2.52;100.00;91672.97;2113626;27;20023;-79
2022/04/22 01:49:31;;;;;;;8.40;7.50;;;;;;;2.48;100.00;91674.19;2113665;28;20109;-80
2022/04/22 01:50:32;;;;;;;8.68;7.70;;;;;;;2.57;100.00;91671.03;2096870;28;20028;-81
2022/04/22 01:51:34;;;;;;;8.30;7.50;;;;;;;2.48;100.00;91668.91;2105780;28;20016;-79
2022/04/22 01:52:39;;;;;;;8.60;7.43;;;;;;;2.45;100.00;91665.16;2114439;28;20377;-80
2022/04/22 01:53:40;;;;;;;8.27;7.43;;;;;;;2.56;100.00;91670.28;2108364;28;20553;-80
2022/04/22 01:54:41;;;;;;;8.90;7.53;;;;;;;2.49;100.00;91660.59;2097373;28;20397;-81
2022/04/22 01:55:42;;;;;;;7.78;7.05;;;;;;;2.45;100.00;91664.41;2105648;28;20114;-79
2022/04/22 01:56:43;;;;;;;7.93;7.13;;;;;;;2.46;100.00;91669.31;2113571;28;20015;-79
2022/04/22 01:57:44;;;;;;;8.65;7.47;;;;;;;2.42;100.00;91660.72;2097251;28;20024;-78
2022/04/22 01:58:45;;;;;;;7.90;7.20;;;;;;;2.40;100.00;91667.50;2096363;28;20024;-77
2022/04/22 01:59:48;;;;;;;9.20;7.75;;;;;;;2.51;100.00;91662.84;2113650;28;20020;-80
2022/04/22 02:00:49;;;;;;;7.95;7.22;;;;;;;2.51;100.00;91660.19;2116606;27;20118;-80
2022/04/22 02:01:50;;;;;;;9.05;7.47;;;;;;;2.42;100.00;91663.34;2104821;28;20020;-80
2022/04/22 02:02:50;;;;;;;8.05;7.30;;;;;;;2.46;100.00;91664.03;2111701;27;20016;-80
2022/04/22 02:03:51;;;;;;;7.57;6.88;;;;;;;2.42;100.00;91665.25;2111995;27;20062;-79
2022/04/22 02:04:52;;;;;;;8.27;7.35;;;;;;;2.31;100.00;91657.47;2105921;28;20028;-80
2022/04/22 02:05:53;;;;;;;8.23;7.20;;;;;;;2.40;100.00;91665.63;2113666;28;20020;-80
2022/04/22 02:06:54;;;;;;;9.48;6.97;;;;;;;2.29;100.00;91659.03;2105521;28;20016;-79
2022/04/22 02:07:55;;;;;;;8.13;7.32;;;;;;;2.25;100.00;91667.72;2103995;28;20039;-78
2022/04/22 02:08:57;;;;;;;8.30;7.13;;;;;;;2.17;100.00;91665.59;2118195;27;20079;-80
2022/04/22 02:09:58;;;;;;;7.80;6.88;;;;;;;2.17;100.00;91661.06;2114005;28;20031;-79
2022/04/22 02:12:49;;;;;;;;;;;;;;;2.30;100.00;91669.16;2139905;27;20574;-79
2022/04/22 02:13:50;;;;;;;8.10;6.18;;;;;;;2.31;100.00;91668.00;2111781;28;19911;-78
2022/04/22 02:14:51;;;;;;;8.05;6.68;;;;;;;2.29;100.00;91665.03;2121004;27;20062;-78
2022/04/22 02:15:53;;;;;;;8.07;7.28;;;;;;;2.26;100.00;91668.47;2120962;27;20617;-80
2022/04/22 02:16:54;;;;;;;8.48;7.07;;;;;;;2.31;100.00;91665.38;2098257;28;20070;-78
2022/04/22 02:17:55;;;;;;;8.50;7.25;;;;;;;2.30;100.00;91658.63;2099716;28;20017;-79
2022/04/22 02:18:57;;;;;;;7.70;6.65;;;;;;;2.33;100.00;91665.75;2106595;28;20495;-80
2022/04/22 02:19:58;;;;;;;9.32;6.75;;;;;;;2.28;100.00;91666.16;2108406;28;20028;-78
2022/04/22 02:20:59;;;;;;;6.90;6.30;;;;;;;2.28;100.00;91652.97;2096788;28;20013;-80
2022/04/22 02:22:00;;;;;;;7.72;6.95;;;;;;;2.21;100.00;91658.38;2114787;27;20464;-78
2022/04/22 02:23:01;;;;;;;8.82;7.38;;;;;;;2.20;100.00;91654.25;2115543;28;20019;-78
2022/04/22 02:24:03;;;;;;;8.35;7.25;;;;;;;2.36;100.00;91648.34;2106254;28;20066;-78
2022/04/22 02:25:04;;;;;;;7.45;6.75;;;;;;;2.31;100.00;91646.94;2122606;27;20026;-78
2022/04/22 02:26:05;;;;;;;7.88;6.57;;;;;;;2.35;100.00;91646.88;2109688;27;20079;-79
2022/04/22 02:28:32;;;;;;;7.43;6.72;;;;;;;2.30;100.00;91636.78;2112250;27;20016;-81
2022/04/22 02:29:33;;;;;;;8.18;6.28;;;;;;;2.34;100.00;91648.03;2110833;28;20058;-80
2022/04/22 02:30:34;;;;;;;7.55;6.78;;;;;;;2.24;100.00;91642.50;2109267;28;20024;-78
2022/04/22 02:31:55;;;;;;;7.85;7.05;;;;;;;2.55;100.00;91641.66;2120219;28;20456;-78
2022/04/22 02:32:56;;;;;;;7.55;6.35;;;;;;;2.39;100.00;91644.94;2118062;27;20024;-79
2022/04/22 02:33:57;;;;;;;7.50;6.60;;;;;;;2.35;100.00;91637.06;2116841;28;20077;-80
2022/04/22 02:34:58;;;;;;;7.13;6.38;;;;;;;2.30;100.00;91637.53;2115991;28;20468;-81
2022/04/22 02:35:59;;;;;;;6.97;6.38;;;;;;;2.29;100.00;91641.31;2114347;28;20035;-78
2022/04/22 02:37:00;;;;;;;10.18;6.78;;;;;;;2.49;100.00;91633.47;2115543;28;20023;-78
2022/04/22 02:38:01;;;;;;;9.88;6.80;;;;;;;2.30;100.00;91645.44;2114961;28;20024;-78
2022/04/22 02:39:03;;;;;;;7.30;6.60;;;;;;;2.28;100.00;91637.16;2108415;28;20473;-80
2022/04/22 02:40:04;;;;;;;7.18;6.45;;;;;;;2.26;100.00;91634.19;2101701;28;20017;-81
2022/04/22 02:46:25;;;;;;;7.35;6.65;;;;;;;2.16;100.00;91627.94;2127275;27;20380;-81
2022/04/22 02:47:26;;;;;;;10.45;7.50;;;;;;;2.23;100.00;91625.19;2109975;28;20020;-80
2022/04/22 02:48:27;;;;;;;7.32;6.63;;;;;;;2.23;100.00;91632.34;2102176;28;20031;-78
2022/04/22 02:49:28;;;;;;;7.88;7.18;;;;;;;2.30;100.00;91634.16;2116462;27;20403;-80
2022/04/22 02:50:29;;;;;;;7.90;7.10;;;;;;;2.23;100.00;91637.63;2127887;27;20071;-79
2022/04/22 02:51:30;;;;;;;8.57;6.78;;;;;;;2.16;100.00;91633.22;2116540;28;20019;-78
2022/04/22 02:52:37;;;;;;;7.47;6.70;;;;;;;2.33;100.00;91636.75;2114597;28;20414;-78
2022/04/22 02:53:38;;;;;;;8.40;7.00;;;;;;;2.27;100.00;91631.16;2128565;27;20078;-80
2022/04/22 02:54:40;;;;;;;9.73;7.20;;;;;;;2.19;100.00;91635.03;2120732;28;20011;-78
2022/04/22 02:55:47;;;;;;;7.80;7.00;;;;;;;2.14;100.00;91627.59;2100077;28;20039;-79
2022/04/22 02:56:52;;;;;;;7.80;7.00;;;;;;;2.13;100.00;91620.81;2109688;27;20016;-79
2022/04/22 02:57:53;;;;;;;6.97;6.38;;;;;;;2.16;100.00;91625.31;2114845;28;20024;-77
2022/04/22 02:58:55;;;;;;;7.55;6.85;;;;;;;2.13;100.00;91628.72;2115074;28;20024;-80
2022/04/22 02:59:57;;;;;;;10.43;7.53;;;;;;;2.08;100.00;91623.19;2103810;28;20016;-80
2022/04/22 03:00:57;;;;;;;7.80;7.05;;;;;;;2.00;100.00;91625.91;2107906;27;20024;-78
2022/04/22 03:01:59;;;;;;;7.78;7.07;;;;;;;1.94;100.00;91629.41;2106561;28;20555;-79
2022/04/22 03:03:02;;;;;;;8.48;7.63;;;;;;;2.13;100.00;91631.38;2106294;28;20027;-80
2022/04/22 03:04:04;;;;;;;9.82;8.95;;;;;;;2.06;100.00;91626.19;2112277;28;20034;-79
2022/04/22 03:05:05;;;;;;;13.57;11.68;;;;;;;2.13;100.00;91628.72;2116048;28;20015;-79
2022/04/22 03:06:06;;;;;;;14.13;12.73;;;;;;;2.05;100.00;91622.06;2095773;28;20021;-80
2022/04/22 03:07:07;;;;;;;14.75;13.18;;;;;;;2.01;100.00;91629.28;2101732;28;20073;-79
2022/04/22 03:08:08;;;;;;;14.98;13.38;;;;;;;1.88;100.00;91623.81;2095604;28;20728;-80
2022/04/22 03:09:09;;;;;;;18.30;14.98;;;;;;;1.95;100.00;91620.34;2103992;28;20020;-81
2022/04/22 03:10:10;;;;;;;16.67;14.98;;;;;;;1.88;100.00;91615.16;2120812;27;20476;-78
2022/04/22 03:11:20;;;;;;;15.95;14.02;;;;;;;1.79;100.00;91617.53;2112142;28;20034;-78
2022/04/22 03:12:22;;;;;;;16.20;14.23;;;;;;;1.73;100.00;91619.88;2106201;28;20452;-79
2022/04/22 03:13:25;;;;;;;16.27;13.75;;;;;;;1.77;100.00;91618.69;2110028;28;20057;-80
2022/04/22 03:14:26;;;;;;;14.85;13.30;;;;;;;1.76;100.00;91622.47;2120478;28;20016;-80
2022/04/22 03:15:27;;;;;;;15.52;13.85;;;;;;;1.87;100.00;91619.69;2104016;28;20089;-80
2022/04/22 03:16:28;;;;;;;17.38;13.00;;;;;;;1.81;100.00;91615.28;2112312;27;20681;-78
2022/04/22 03:17:30;;;;;;;15.65;12.82;;;;;;;1.86;100.00;91618.19;2112420;28;20019;-80
2022/04/22 03:18:31;;;;;;;14.27;12.68;;;;;;;1.77;100.00;91617.94;2095394;28;20378;-80
2022/04/22 03:19:32;;;;;;;13.93;12.52;;;;;;;1.71;100.00;91617.66;2095626;28;20027;-78
2022/04/22 03:20:33;;;;;;;14.88;12.35;;;;;;;1.73;100.00;91615.34;2095691;28;20028;-80
2022/04/22 03:21:34;;;;;;;13.98;12.15;;;;;;;1.87;100.00;91624.94;2104001;28;20016;-79
2022/04/22 03:22:36;;;;;;;15.32;12.68;;;;;;;1.82;100.00;91620.13;2103572;28;20012;-78
2022/04/22 03:23:37;;;;;;;13.27;11.88;;;;;;;1.89;100.00;91625.31;2093426;28;20498;-78
2022/04/22 03:24:38;;;;;;;12.45;11.15;;;;;;;1.81;100.00;91618.66;2098431;28;20034;-78
2022/04/22 03:25:40;;;;;;;14.20;12.00;;;;;;;1.76;100.00;91624.38;2114541;28;20024;-78
2022/04/22 03:26:41;;;;;;;11.07;9.93;;;;;;;1.69;100.00;91624.44;2097965;28;20062;-78
2022/04/22 03:27:42;;;;;;;10.55;9.32;;;;;;;1.66;100.00;91612.81;2095443;28;20025;-77
2022/04/22 03:28:43;;;;;;;10.30;8.70;;;;;;;1.64;100.00;91612.47;2085901;28;20013;-79
2022/04/22 03:29:44;;;;;;;9.88;8.45;;;;;;;1.61;100.00;91615.88;2097345;28;20013;-78
2022/04/22 03:30:45;;;;;;;8.43;7.63;;;;;;;1.79;100.00;91618.28;2104610;28;20025;-78
2022/04/22 03:31:46;;;;;;;9.55;8.55;;;;;;;1.79;100.00;91609.63;2101501;28;20017;-80
2022/04/22 03:32:47;;;;;;;9.18;7.85;;;;;;;1.76;100.00;91609.31;2083673;28;20104;-78
2022/04/22 03:33:48;;;;;;;12.00;8.13;;;;;;;1.87;100.00;91598.59;2098230;28;20058;-78
2022/04/22 03:34:49;;;;;;;13.88;8.15;;;;;;;1.71;100.00;91603.72;2098212;28;20027;-79
2022/04/22 03:35:50;;;;;;;8.45;7.32;;;;;;;1.73;100.00;91601.44;2089702;28;20055;-80
2022/04/22 03:36:52;;;;;;;9.68;8.18;;;;;;;1.71;100.00;91606.34;2089983;28;20779;-78
2022/04/22 03:37:53;;;;;;;9.43;7.95;;;;;;;1.70;100.00;91607.50;2095702;28;20044;-78
2022/04/22 03:38:54;;;;;;;8.75;7.47;;;;;;;1.63;100.00;91602.34;2101756;28;20098;-78
2022/04/22 03:39:55;;;;;;;9.23;7.05;;;;;;;1.79;100.00;91602.47;2106534;28;20024;-78
2022/04/22 03:40:56;;;;;;;8.95;7.38;;;;;;;1.73;100.00;91598.81;2106585;28;20091;-81
2022/04/22 03:41:58;;;;;;;8.73;7.13;;;;;;;1.64;100.00;91598.56;2106427;28;20032;-78
2022/04/22 03:42:59;;;;;;;9.13;8.20;;;;;;;1.66;100.00;91599.63;2098730;28;20044;-78
2022/04/22 03:44:00;;;;;;;8.20;7.40;;;;;;;1.64;100.00;91593.28;2097856;28;20107;-79
2022/04/22 03:45:01;;;;;;;7.97;7.18;;;;;;;1.59;100.00;91604.28;2097994;28;20020;-80
2022/04/22 03:46:03;;;;;;;8.93;7.68;;;;;;;1.58;100.00;91603.53;2100073;28;20016;-79
2022/04/22 03:47:05;;;;;;;10.20;7.45;;;;;;;1.52;100.00;91594.56;2102052;28;20074;-78
2022/04/22 03:48:07;;;;;;;9.40;7.72;;;;;;;1.66;100.00;91602.28;2106495;28;20028;-80
2022/04/22 03:49:09;;;;;;;9.27;7.55;;;;;;;1.63;100.00;91599.72;2104555;28;20032;-79
2022/04/22 03:50:10;;;;;;;8.90;8.00;;;;;;;1.77;100.00;91604.78;2114179;28;20123;-78
2022/04/22 03:51:11;;;;;;;9.40;7.80;;;;;;;1.66;100.00;91598.91;2121681;27;20019;-79
2022/04/22 03:52:12;;;;;;;9.88;7.85;;;;;;;1.61;100.00;91596.72;2106231;28;20073;-78
2022/04/22 03:53:13;;;;;;;10.45;7.72;;;;;;;1.63;100.00;91597.81;2089871;28;20065;-80
2022/04/22 03:54:18;;;;;;;9.23;8.35;;;;;;;1.58;100.00;91602.75;2097995;28;20111;-80
2022/04/22 03:55:19;;;;;;;8.13;7.28;;;;;;;1.60;100.00;91606.50;2096420;28;20021;-81
2022/04/22 03:58:59;;;;;;;9.07;7.38;;;;;;;1.52;100.00;91597.19;2114783;28;20026;-80
2022/04/22 04:00:00;;;;;;;8.48;7.13;;;;;;;1.48;100.00;91607.75;2114812;28;20023;-78
2022/04/22 04:01:01;;;;;;;8.88;7.60;;;;;;;1.51;100.00;91599.09;2106222;28;20020;-78
2022/04/22 04:02:03;;;;;;;9.18;8.07;;;;;;;1.40;100.00;91597.72;2105515;28;20056;-80
2022/04/22 04:03:04;;;;;;;8.40;6.93;;;;;;;1.35;100.00;91596.28;2100409;28;20198;-79
2022/04/22 04:04:05;;;;;;;8.00;7.30;;;;;;;1.36;100.00;91602.28;2098087;28;20066;-79
2022/04/22 04:05:06;;;;;;;8.35;7.32;;;;;;;1.28;100.00;91606.91;2106363;28;20031;-81
2022/04/22 04:06:07;;;;;;;10.30;8.20;;;;;;;1.40;100.00;91600.34;2112753;28;20020;-79
2022/04/22 04:07:08;;;;;;;8.88;8.02;;;;;;;1.34;100.00;91601.94;2102098;28;20472;-78
2022/04/22 04:08:10;;;;;;;9.35;7.50;;;;;;;1.35;100.00;91606.06;2094179;28;20072;-78
2022/04/22 04:15:57;;;;;;;32.17;20.50;;;;;;;1.15;100.00;91595.41;2112608;28;20110;-80
2022/04/22 04:16:58;;;;;;;26.30;20.02;;;;;;;1.16;100.00;91602.16;2097979;28;20494;-80
2022/04/22 04:17:59;;;;;;;27.73;19.15;;;;;;;1.10;100.00;91598.44;2106130;28;20020;-79
2022/04/22 04:23:15;;;;;;;17.95;15.95;;;;;;;1.08;100.00;91593.59;2097140;28;20114;-80
2022/04/22 04:24:19;;;;;;;17.00;15.27;;;;;;;1.08;100.00;91596.22;2113398;28;20031;-80
2022/04/22 04:25:20;;;;;;;21.35;19.30;;;;;;;1.07;100.00;91599.25;2105315;28;20130;-80
2022/04/22 04:26:24;;;;;;;24.10;19.02;;;;;;;1.02;100.00;91597.78;2089238;28;20025;-80
2022/04/22 04:27:25;;;;;;;18.58;16.67;;;;;;;1.02;100.00;91599.69;2098309;28;20554;-80
2022/04/22 04:28:29;;;;;;;16.40;14.88;;;;;;;0.98;100.00;91602.34;2098346;28;20020;-79
2022/04/22 04:29:34;;;;;;;16.83;15.13;;;;;;;0.99;100.00;91596.69;2094921;28;20517;-80
2022/04/22 04:30:41;;;;;;;16.10;14.50;;;;;;;0.95;100.00;91600.50;2089740;28;20025;-80
2022/04/22 04:31:42;;;;;;;15.32;13.73;;;;;;;1.03;100.00;91603.78;2096225;28;20028;-81
2022/04/22 04:32:43;;;;;;;13.07;11.65;;;;;;;0.93;100.00;91597.50;2106088;28;20114;-81
2022/04/22 04:33:44;;;;;;;11.65;10.13;;;;;;;0.88;100.00;91597.91;2097761;28;20021;-79
2022/04/22 04:34:45;;;;;;;11.02;9.85;;;;;;;0.88;100.00;91603.19;2089486;28;20691;-81
2022/04/22 04:35:47;;;;;;;10.68;9.52;;;;;;;1.09;100.00;91604.84;2096748;28;20039;-78
2022/04/22 04:36:48;;;;;;;10.52;9.30;;;;;;;1.10;100.00;91595.81;2097694;28;20689;-79
2022/04/22 04:37:49;;;;;;;12.90;9.25;;;;;;;0.97;100.00;91592.97;2105424;28;20043;-81
2022/04/22 04:38:50;;;;;;;13.70;12.25;;;;;;;0.95;100.00;91593.34;2091181;28;20021;-79
2022/04/22 04:39:55;;;;;;;15.95;12.98;;;;;;;0.89;100.00;91594.16;2099950;28;20024;-79
2022/04/22 04:40:56;;;;;;;12.85;11.40;;;;;;;0.90;100.00;91598.28;2112563;28;20023;-80
2022/04/22 04:41:57;;;;;;;11.43;10.32;;;;;;;0.90;100.00;91603.56;2114369;28;20023;-80
2022/04/22 04:43:00;;;;;;;11.65;10.15;;;;;;;0.88;100.00;91596.06;2097719;28;20497;-79
2022/04/22 04:44:01;;;;;;;11.27;9.90;;;;;;;0.92;100.00;91596.78;2089766;28;20115;-80
2022/04/22 04:45:03;;;;;;;10.15;9.15;;;;;;;0.94;100.00;91596.38;2097673;28;20039;-78
2022/04/22 04:46:05;;;;;;;14.52;9.80;;;;;;;0.91;100.00;91600.53;2097646;28;20024;-80
2022/04/22 04:47:06;;;;;;;10.63;9.52;;;;;;;0.94;100.00;91591.09;2105643;28;20020;-80
2022/04/22 04:48:07;;;;;;;16.85;10.52;;;;;;;0.97;100.00;91591.06;2095966;28;20074;-80
2022/04/22 04:49:08;;;;;;;11.90;9.70;;;;;;;1.00;100.00;91590.28;2095765;28;20450;-80
2022/04/22 04:50:11;;;;;;;11.55;10.35;;;;;;;1.10;100.00;91587.91;2092642;28;20024;-79
2022/04/22 04:51:11;;;;;;;13.15;9.93;;;;;;;1.10;100.00;91593.19;2095420;28;20032;-81
2022/04/22 04:52:12;;;;;;;13.75;10.60;;;;;;;1.12;100.00;91591.66;2093688;28;20480;-79
2022/04/22 04:53:13;;;;;;;11.88;9.98;;;;;;;1.22;100.00;91590.78;2095069;28;20032;-79
2022/04/22 04:54:14;;;;;;;11.23;10.02;;;;;;;1.24;100.00;91582.50;2096366;28;20044;-80
2022/04/22 04:55:15;;;;;;;12.85;9.80;;;;;;;1.28;100.00;91583.22;2092269;28;20819;-80
2022/04/22 04:56:16;;;;;;;12.23;10.43;;;;;;;1.37;100.00;91580.09;2099852;28;20412;-80
2022/04/22 04:57:19;;;;;;;11.77;10.07;;;;;;;1.41;100.00;91578.91;2104634;28;20019;-79
2022/04/22 04:58:20;;;;;;;13.13;10.63;;;;;;;1.43;100.00;91578.50;2092485;28;20413;-81
2022/04/22 04:59:22;;;;;;;12.13;10.63;;;;;;;1.37;100.00;91575.56;2092373;28;20021;-81
2022/04/22 05:00:23;;;;;;;11.65;10.38;;;;;;;1.37;100.00;91575.56;2092579;28;20116;-80
2022/04/22 05:01:24;;;;;;;12.32;10.68;;;;;;;1.39;100.00;91581.19;2091658;28;20027;-79
2022/04/22 05:02:25;;;;;;;11.32;10.10;;;;;;;1.38;100.00;91577.06;2083618;28;20021;-82
2022/04/22 05:03:26;;;;;;;12.07;9.90;;;;;;;1.44;100.00;91580.72;2100557;28;20147;-79
2022/04/22 05:04:27;;;;;;;14.43;9.70;;;;;;;1.49;100.00;91575.06;2100012;28;20057;-81
2022/04/22 05:05:28;;;;;;;12.55;10.15;;;;;;;1.55;100.00;91582.50;2088699;28;20024;-81
2022/04/22 05:06:30;;;;;;;15.40;10.45;;;;;;;1.58;100.00;91584.31;2092174;28;20054;-79
2022/04/22 05:07:45;;;;;;;13.25;11.00;;;;;;;1.64;100.00;91572.97;2100532;28;20032;-79
2022/04/22 05:08:46;;;;;;;19.83;16.30;;;;;;;1.69;100.00;91574.41;2098915;28;20047;-79
2022/04/22 05:09:47;;;;;;;20.92;18.75;;;;;;;1.76;100.00;91575.06;2092327;28;20039;-79
2022/04/22 05:10:48;;;;;;;28.08;22.73;;;;;;;1.85;100.00;91582.47;2083452;28;20048;-80
2022/04/22 05:11:48;;;;;;;25.85;20.52;;;;;;;1.88;100.00;91588.81;2082917;28;20024;-79
2022/04/22 05:12:50;;;;;;;16.65;13.25;;;;;;;1.88;100.00;91583.53;2083162;28;20389;-79
2022/04/22 05:13:51;;;;;;;14.07;11.10;;;;;;;1.83;100.00;91582.09;2090621;28;20443;-77
2022/04/22 05:14:52;;;;;;;12.07;10.70;;;;;;;1.80;100.00;91582.16;2083018;28;20165;-78
2022/04/22 05:15:55;;;;;;;14.50;10.68;;;;;;;1.83;100.00;91589.25;2083238;28;20339;-79
2022/04/22 05:16:56;;;;;;;13.88;10.70;;;;;;;1.91;100.00;91586.13;2084754;28;20455;-83
2022/04/22 05:17:59;;;;;;;12.23;10.40;;;;;;;1.89;100.00;91590.28;2092703;28;20028;-83
2022/04/22 05:19:00;;;;;;;14.15;11.07;;;;;;;2.01;100.00;91581.84;2093918;28;20024;-80